Time;durP1;ratioP1;P1;durP2;ratioP2;P2;SDS_P1;SDS_P2;PMS_P1;PMS_P2;Temp;Humidity;BMP_temperature;BMP_pressure;BME280_temperature;BME280_humidity;BME280_pressure;Samples;Min_cycle;Max_cycle;Signal;HPM_P1;HPM_P2
2022/02/13 00:01:32;;;;;;;68.95;32.08;;;;;;;-5.60;83.47;99742.42;1677186;84;20954;-69
2022/02/13 00:03:58;;;;;;;57.45;25.88;;;;;;;-5.58;83.48;99751.41;1677584;85;20920;-68
2022/02/13 00:06:25;;;;;;;55.95;27.62;;;;;;;-5.56;83.55;99735.13;1677311;85;21813;-67
2022/02/13 00:08:53;;;;;;;56.23;29.05;;;;;;;-5.57;83.61;99731.69;1677257;84;20942;-68
2022/02/13 00:11:20;;;;;;;46.08;25.15;;;;;;;-5.52;83.79;99742.17;1677168;85;21055;-64
2022/02/13 00:14:08;;;;;;;45.48;22.60;;;;;;;-5.45;83.73;99730.17;1677186;85;20955;-69
2022/02/13 00:16:36;;;;;;;47.75;24.10;;;;;;;-5.44;83.77;99727.92;1719411;83;20918;-64
2022/02/13 00:19:02;;;;;;;39.78;22.22;;;;;;;-5.41;83.83;99735.44;1719494;83;21131;-64
2022/02/13 00:21:31;;;;;;;36.08;19.35;;;;;;;-5.39;83.69;99738.75;1691227;83;20969;-63
2022/02/13 00:23:58;;;;;;;49.27;29.30;;;;;;;-5.40;83.69;99734.48;1719420;83;20946;-64
2022/02/13 00:26:25;;;;;;;44.30;26.17;;;;;;;-5.42;83.55;99729.89;1719390;83;20942;-67
2022/02/13 00:28:52;;;;;;;44.00;23.38;;;;;;;-5.50;83.56;99725.88;1719431;83;21034;-63
2022/02/13 00:31:20;;;;;;;51.13;29.15;;;;;;;-5.51;83.65;99714.59;1719321;83;21111;-62
2022/02/13 00:33:46;;;;;;;40.80;21.82;;;;;;;-5.52;83.73;99727.81;1719368;83;21426;-63
2022/02/13 00:36:13;;;;;;;35.30;19.00;;;;;;;-5.53;83.79;99730.10;1719470;83;21521;-65
2022/02/13 00:38:40;;;;;;;39.55;23.00;;;;;;;-5.53;83.94;99713.13;1719388;82;20941;-65
2022/02/13 00:41:07;;;;;;;41.35;21.82;;;;;;;-5.51;83.94;99700.75;1719515;83;20863;-63
2022/02/13 00:43:34;;;;;;;20.52;11.53;;;;;;;-5.55;83.78;99706.25;1719527;83;21114;-65
2022/02/13 00:46:01;;;;;;;35.95;17.55;;;;;;;-5.57;83.81;99699.05;1719453;83;20956;-65
2022/02/13 00:48:27;;;;;;;42.20;21.62;;;;;;;-5.58;83.96;99703.92;1719528;83;21444;-66
2022/02/13 00:50:56;;;;;;;36.83;20.52;;;;;;;-5.59;83.91;99699.69;1719424;83;20957;-65
2022/02/13 00:53:22;;;;;;;26.90;14.28;;;;;;;-5.57;83.90;99686.00;1719562;83;20926;-66
2022/02/13 00:55:49;;;;;;;19.27;11.38;;;;;;;-5.53;83.84;99692.24;1719542;83;21117;-63
2022/02/13 00:58:16;;;;;;;24.40;13.60;;;;;;;-5.50;83.91;99691.92;1719445;83;20887;-61
2022/02/13 01:00:44;;;;;;;30.20;16.42;;;;;;;-5.48;84.05;99692.59;1719730;83;21485;-66
2022/02/13 01:03:11;;;;;;;24.37;13.35;;;;;;;-5.46;84.02;99677.62;1719508;83;20945;-65
2022/02/13 01:05:37;;;;;;;15.50;8.80;;;;;;;-5.40;84.18;99679.16;1719787;83;20933;-65
2022/02/13 01:08:05;;;;;;;18.52;9.90;;;;;;;-5.34;84.15;99687.69;1719425;83;21209;-65
2022/02/13 01:10:32;;;;;;;23.65;11.40;;;;;;;-5.35;84.10;99677.41;1719354;83;20985;-63
2022/02/13 01:13:01;;;;;;;29.95;13.00;;;;;;;-5.40;83.83;99670.50;1719519;83;20893;-65
2022/02/13 01:15:29;;;;;;;33.98;17.20;;;;;;;-5.48;83.64;99666.48;1714412;83;20949;-66
2022/02/13 01:17:57;;;;;;;38.80;17.25;;;;;;;-5.54;83.72;99667.91;1709435;82;20867;-65
2022/02/13 01:20:24;;;;;;;42.10;21.45;;;;;;;-5.51;83.81;99658.45;1709545;84;21126;-65
2022/02/13 01:22:51;;;;;;;38.50;19.23;;;;;;;-5.51;83.60;99649.83;1709437;84;20903;-65
2022/02/13 01:25:18;;;;;;;46.08;19.70;;;;;;;-5.53;83.70;99640.82;1709774;83;21362;-68
2022/02/13 01:27:46;;;;;;;45.63;21.50;;;;;;;-5.48;84.01;99642.98;1709525;84;20942;-67
2022/02/13 01:30:13;;;;;;;50.85;22.05;;;;;;;-5.46;84.14;99639.25;1709633;84;20958;-68
2022/02/13 01:32:40;;;;;;;50.23;20.75;;;;;;;-5.43;84.35;99647.28;1709733;83;21540;-65
2022/02/13 01:35:09;;;;;;;52.53;22.15;;;;;;;-5.43;84.58;99645.97;1709491;83;20847;-63
2022/02/13 01:37:36;;;;;;;71.33;28.60;;;;;;;-5.45;84.59;99640.91;1709414;84;20891;-62
2022/02/13 01:40:05;;;;;;;59.48;27.42;;;;;;;-5.52;83.84;99639.03;1709712;83;21417;-66
2022/02/13 01:42:32;;;;;;;60.90;27.05;;;;;;;-5.67;83.67;99638.23;1709455;84;21465;-66
2022/02/13 01:44:59;;;;;;;56.08;27.40;;;;;;;-5.71;83.57;99632.98;1709543;84;21120;-61
2022/02/13 01:47:29;;;;;;;55.70;25.68;;;;;;;-5.78;83.37;99629.32;1709475;83;20973;-64
2022/02/13 01:49:57;;;;;;;54.23;26.97;;;;;;;-5.79;83.32;99631.58;1709728;83;21453;-63
2022/02/13 01:52:24;;;;;;;55.75;27.17;;;;;;;-5.80;83.61;99633.05;1709389;83;20974;-65
2022/02/13 01:54:51;;;;;;;58.15;26.07;;;;;;;-5.80;83.95;99636.48;1689480;84;20966;-65
2022/02/13 01:57:18;;;;;;;49.88;23.42;;;;;;;-5.80;84.12;99627.83;1709709;83;21865;-64
2022/02/13 01:59:44;;;;;;;40.10;19.48;;;;;;;-5.81;84.22;99631.39;1709465;84;20934;-65
2022/02/13 02:02:11;;;;;;;41.13;18.50;;;;;;;-5.79;84.40;99627.67;1709628;83;21509;-67
2022/02/13 02:04:41;;;;;;;37.60;18.17;;;;;;;-5.74;84.50;99616.78;1709504;83;20914;-63
2022/02/13 02:07:08;;;;;;;51.68;22.65;;;;;;;-5.66;84.54;99630.76;1689923;83;20926;-67
2022/02/13 02:09:35;;;;;;;61.35;26.77;;;;;;;-5.61;84.43;99618.09;1709524;84;21123;-65
2022/02/13 02:12:05;;;;;;;59.42;25.45;;;;;;;-5.60;84.37;99616.27;1709653;83;20940;-63
2022/02/13 02:14:34;;;;;;;59.03;26.73;;;;;;;-5.56;84.36;99605.37;1709713;83;20941;-66
2022/02/13 02:17:01;;;;;;;70.60;30.88;;;;;;;-5.51;84.15;99604.14;1717409;83;21528;-68
2022/02/13 02:19:30;;;;;;;74.62;35.25;;;;;;;-5.49;84.05;99605.63;1717155;83;20942;-63
2022/02/13 02:21:57;;;;;;;70.55;31.65;;;;;;;-5.47;84.05;99611.52;1717329;83;21096;-63
2022/02/13 02:24:24;;;;;;;64.12;27.82;;;;;;;-5.47;83.79;99600.25;1716998;83;20938;-67
2022/02/13 02:26:52;;;;;;;60.45;30.77;;;;;;;-5.53;83.70;99603.47;1717250;83;20977;-65
2022/02/13 02:29:20;;;;;;;55.52;26.45;;;;;;;-5.58;83.65;99607.33;1717150;83;20898;-62
2022/02/13 02:31:46;;;;;;;61.73;26.62;;;;;;;-5.61;83.65;99603.73;1717178;83;20902;-67
2022/02/13 02:34:13;;;;;;;57.35;26.17;;;;;;;-5.62;83.56;99593.41;1717228;83;21126;-67
2022/02/13 02:36:40;;;;;;;56.15;25.75;;;;;;;-5.65;83.60;99606.28;1717061;83;20977;-67
2022/02/13 02:39:07;;;;;;;49.90;24.57;;;;;;;-5.65;83.57;99597.62;1717127;83;20898;-65
2022/02/13 02:41:34;;;;;;;47.17;22.48;;;;;;;-5.66;83.67;99599.43;1717128;83;20914;-67
2022/02/13 02:44:00;;;;;;;47.62;21.97;;;;;;;-5.65;83.64;99605.45;1717162;83;21020;-68
2022/02/13 02:46:27;;;;;;;43.20;20.70;;;;;;;-5.66;83.61;99599.43;1717147;83;21142;-65
2022/02/13 02:48:54;;;;;;;40.48;19.85;;;;;;;-5.65;83.62;99595.84;1717092;83;21500;-62
2022/02/13 02:51:21;;;;;;;44.23;20.77;;;;;;;-5.64;83.66;99592.27;1717394;83;21052;-62
2022/02/13 02:53:47;;;;;;;53.52;25.08;;;;;;;-5.63;83.68;99587.36;1717127;83;20898;-62
2022/02/13 02:56:15;;;;;;;50.78;23.07;;;;;;;-5.60;83.66;99593.60;1717176;83;20969;-67
2022/02/13 02:58:42;;;;;;;52.53;24.90;;;;;;;-5.60;83.59;99577.94;1717037;83;21129;-63
2022/02/13 03:01:09;;;;;;;50.80;23.22;;;;;;;-5.60;83.63;99587.08;1717067;83;20883;-62
2022/02/13 03:03:37;;;;;;;52.90;21.97;;;;;;;-5.60;83.56;99579.24;1717031;83;20929;-63
2022/02/13 03:06:03;;;;;;;48.78;21.45;;;;;;;-5.60;83.51;99579.24;1717079;83;20996;-63
2022/02/13 03:08:31;;;;;;;37.58;18.35;;;;;;;-5.61;83.51;99584.15;1717237;83;21456;-67
2022/02/13 03:10:57;;;;;;;39.88;18.27;;;;;;;-5.58;83.56;99581.69;1717132;83;21185;-65
2022/02/13 03:13:25;;;;;;;36.88;17.50;;;;;;;-5.59;83.54;99587.42;1717266;83;20981;-63
2022/02/13 03:15:53;;;;;;;38.17;18.98;;;;;;;-5.60;83.56;99588.38;1713845;83;21393;-65
2022/02/13 03:18:19;;;;;;;49.35;20.92;;;;;;;-5.59;83.56;99590.03;1709433;84;20894;-65
2022/02/13 03:20:49;;;;;;;41.58;19.85;;;;;;;-5.58;83.56;99585.61;1709704;84;20930;-67
2022/02/13 03:23:17;;;;;;;36.53;18.55;;;;;;;-5.57;83.69;99584.17;1709310;83;21222;-69
2022/02/13 03:25:44;;;;;;;31.05;15.72;;;;;;;-5.51;83.64;99589.27;1709596;84;20985;-63
2022/02/13 03:28:11;;;;;;;38.48;17.73;;;;;;;-5.48;83.45;99588.15;1709352;84;20973;-67
2022/02/13 03:30:40;;;;;;;41.35;18.77;;;;;;;-5.52;83.04;99571.98;1709617;84;20946;-67
2022/02/13 03:33:07;;;;;;;41.42;18.45;;;;;;;-5.60;82.79;99575.33;1709477;84;20902;-68
2022/02/13 03:35:34;;;;;;;42.15;19.42;;;;;;;-5.68;82.55;99575.27;1709655;84;21485;-64
2022/02/13 03:38:03;;;;;;;43.75;20.60;;;;;;;-5.77;82.34;99576.14;1709370;84;21024;-61
2022/02/13 03:40:30;;;;;;;41.33;19.80;;;;;;;-5.85;82.25;99573.50;1709445;84;20902;-64
2022/02/13 03:42:57;;;;;;;43.80;19.57;;;;;;;-5.91;82.28;99579.29;1709446;83;20914;-67
2022/02/13 03:45:24;;;;;;;42.45;19.32;;;;;;;-5.89;82.25;99567.42;1709388;84;20914;-64
2022/02/13 03:47:51;;;;;;;37.05;16.62;;;;;;;-5.89;82.18;99568.72;1709448;84;21311;-67
2022/02/13 03:50:18;;;;;;;32.63;16.90;;;;;;;-5.93;82.16;99560.35;1709405;83;20882;-64
2022/02/13 03:52:45;;;;;;;47.08;19.62;;;;;;;-5.92;82.43;99560.70;1709653;82;21489;-62
2022/02/13 03:55:16;;;;;;;43.70;19.07;;;;;;;-5.88;82.52;99562.04;1709424;84;20958;-64
2022/02/13 03:57:40;;;;;;;52.13;20.92;;;;;;;-5.81;82.68;99547.88;1709177;83;20918;-66
2022/02/13 04:00:09;;;;;;;58.85;28.55;;;;;;;-5.77;82.87;99547.94;1709440;83;21132;-61
2022/02/13 04:02:40;;;;;;;52.98;26.02;;;;;;;-5.75;83.16;99545.99;1709654;83;20890;-65
2022/02/13 04:05:09;;;;;;;47.53;22.45;;;;;;;-5.74;83.51;99536.70;1709633;84;20930;-63
2022/02/13 04:07:41;;;;;;;38.15;20.43;;;;;;;-5.73;83.80;99532.30;1709685;83;20879;-63
2022/02/13 04:10:09;;;;;;;33.23;18.15;;;;;;;-5.73;84.22;99532.30;1709576;84;20863;-63
2022/02/13 04:12:37;;;;;;;39.05;18.25;;;;;;;-5.73;84.57;99518.77;1709398;84;21126;-61
2022/02/13 04:15:05;;;;;;;44.18;20.15;;;;;;;-5.68;84.84;99520.45;1709413;84;20942;-66
2022/02/13 04:17:32;;;;;;;105.60;47.48;;;;;;;-5.62;85.00;99526.84;1709528;83;20907;-60
2022/02/13 04:19:59;;;;;;;75.78;28.15;;;;;;;-5.58;85.22;99513.33;1709578;84;20950;-62
2022/02/13 04:22:26;;;;;;;50.43;22.13;;;;;;;-5.52;85.24;99508.48;1709811;83;20867;-66
2022/02/13 04:24:53;;;;;;;38.25;18.25;;;;;;;-5.53;85.38;99514.19;1709599;84;21118;-67
2022/02/13 04:27:19;;;;;;;52.73;22.02;;;;;;;-5.52;85.54;99501.95;1709522;84;20962;-66
2022/02/13 04:29:46;;;;;;;55.08;22.27;;;;;;;-5.52;85.71;99516.31;1709580;84;20887;-66
2022/02/13 04:32:13;;;;;;;46.15;19.52;;;;;;;-5.51;85.82;99501.00;1709659;84;21477;-64
2022/02/13 04:34:41;;;;;;;49.13;21.17;;;;;;;-5.54;85.94;99503.42;1709495;82;20934;-67
2022/02/13 04:37:08;;;;;;;55.28;23.83;;;;;;;-5.55;85.92;99505.21;1709560;84;21741;-67
2022/02/13 04:39:34;;;;;;;49.23;20.82;;;;;;;-5.56;86.06;99490.50;1709525;84;20902;-66
2022/02/13 04:42:02;;;;;;;47.38;19.02;;;;;;;-5.58;86.11;99489.84;1709640;84;21085;-62
2022/02/13 04:44:29;;;;;;;54.00;22.32;;;;;;;-5.59;86.38;99486.08;1709757;83;21394;-62
2022/02/13 04:46:55;;;;;;;42.03;19.32;;;;;;;-5.60;86.54;99490.48;1709584;82;21383;-64
2022/02/13 04:49:23;;;;;;;48.48;21.33;;;;;;;-5.59;86.77;99484.30;1709561;84;21116;-66
2022/02/13 04:51:50;;;;;;;42.70;20.48;;;;;;;-5.59;86.87;99480.86;1709387;84;20930;-61
2022/02/13 04:54:18;;;;;;;44.35;18.05;;;;;;;-5.56;87.01;99487.09;1709546;83;20895;-61
2022/02/13 04:56:45;;;;;;;40.12;17.07;;;;;;;-5.56;87.10;99480.06;1709533;84;21497;-62
2022/02/13 04:59:12;;;;;;;42.40;18.85;;;;;;;-5.55;87.37;99484.32;1709577;84;21049;-64
2022/02/13 05:01:38;;;;;;;37.08;16.60;;;;;;;-5.53;87.28;99469.80;1709562;84;21774;-64
2022/02/13 05:04:05;;;;;;;31.68;15.08;;;;;;;-5.51;87.32;99475.69;1709505;84;20958;-61
2022/02/13 05:06:32;;;;;;;36.20;18.45;;;;;;;-5.50;87.36;99483.03;1709647;84;21505;-64
2022/02/13 05:09:00;;;;;;;29.23;14.30;;;;;;;-5.50;87.45;99471.28;1709551;84;20875;-62
2022/02/13 05:11:28;;;;;;;32.15;15.80;;;;;;;-5.47;87.62;99477.52;1709485;82;20906;-63
2022/02/13 05:13:55;;;;;;;50.83;23.62;;;;;;;-5.43;87.64;99469.22;1709803;84;21109;-61
2022/02/13 05:16:22;;;;;;;42.20;21.93;;;;;;;-5.39;87.69;99464.53;1712589;83;21060;-62
2022/02/13 05:18:48;;;;;;;33.78;16.40;;;;;;;-5.36;87.63;99470.73;1717256;83;20917;-66
2022/02/13 05:21:16;;;;;;;33.28;15.60;;;;;;;-5.34;87.77;99467.47;1717376;83;21374;-62
2022/02/13 05:23:43;;;;;;;36.70;19.73;;;;;;;-5.32;87.66;99465.55;1717236;83;20950;-67
2022/02/13 05:26:12;;;;;;;46.25;21.25;;;;;;;-5.30;87.64;99471.44;1717364;83;21706;-67
2022/02/13 05:28:39;;;;;;;33.58;16.00;;;;;;;-5.32;87.62;99466.34;1717016;83;20922;-66
2022/02/13 05:31:06;;;;;;;35.20;15.98;;;;;;;-5.33;87.65;99468.64;1717201;83;20969;-69
2022/02/13 05:33:33;;;;;;;31.15;15.70;;;;;;;-5.33;87.61;99471.73;1717188;83;20957;-68
2022/02/13 05:36:00;;;;;;;40.70;17.82;;;;;;;-5.33;87.66;99474.34;1717487;83;20894;-68
2022/02/13 05:38:27;;;;;;;38.08;17.27;;;;;;;-5.31;87.63;99472.40;1717159;82;21129;-64
2022/02/13 05:40:54;;;;;;;34.20;15.18;;;;;;;-5.29;87.52;99475.67;1717110;83;20945;-63
2022/02/13 05:43:20;;;;;;;36.05;16.37;;;;;;;-5.30;87.43;99470.92;1717205;83;21457;-63
2022/02/13 05:45:47;;;;;;;35.08;16.57;;;;;;;-5.32;87.46;99472.88;1717185;83;20882;-63
2022/02/13 05:48:14;;;;;;;45.75;18.48;;;;;;;-5.30;87.39;99466.22;1717298;83;21005;-66
2022/02/13 05:50:42;;;;;;;39.15;17.07;;;;;;;-5.31;87.34;99469.78;1717388;83;21720;-67
2022/02/13 05:53:08;;;;;;;37.60;16.70;;;;;;;-5.31;87.41;99467.17;1717134;83;20926;-67
2022/02/13 05:55:35;;;;;;;45.33;22.07;;;;;;;-5.30;87.40;99463.61;1717193;83;21363;-64
2022/02/13 05:58:02;;;;;;;45.60;22.20;;;;;;;-5.26;87.42;99461.00;1717135;83;20941;-67
2022/02/13 06:00:29;;;;;;;53.95;22.87;;;;;;;-5.22;87.40;99459.72;1717216;83;20898;-65
2022/02/13 06:02:56;;;;;;;38.73;19.45;;;;;;;-5.19;87.46;99459.41;1717187;83;21117;-66
2022/02/13 06:05:24;;;;;;;48.70;24.63;;;;;;;-5.13;87.49;99461.39;1717103;83;20973;-68
2022/02/13 06:07:51;;;;;;;39.90;19.23;;;;;;;-5.05;87.56;99456.22;1717226;83;20982;-69
2022/02/13 06:10:18;;;;;;;33.85;17.35;;;;;;;-4.99;87.50;99460.33;1717161;83;20953;-64
2022/02/13 06:12:44;;;;;;;35.75;19.40;;;;;;;-4.92;87.56;99460.52;1717484;82;21468;-68
2022/02/13 06:15:12;;;;;;;33.95;17.82;;;;;;;-4.83;87.53;99460.91;1717176;83;21124;-68
2022/02/13 06:17:40;;;;;;;30.82;15.83;;;;;;;-4.74;87.44;99458.66;1710869;83;20888;-69
2022/02/13 06:20:08;;;;;;;33.00;16.15;;;;;;;-4.65;87.34;99452.48;1709517;84;21438;-68
2022/02/13 06:22:35;;;;;;;27.37;13.95;;;;;;;-4.57;87.24;99451.17;1709487;83;21485;-70
2022/02/13 06:25:03;;;;;;;27.70;13.38;;;;;;;-4.49;87.13;99451.22;1709508;84;20953;-67
2022/02/13 06:27:30;;;;;;;30.48;13.10;;;;;;;-4.45;86.90;99451.73;1709708;84;21889;-63
2022/02/13 06:29:57;;;;;;;31.52;15.78;;;;;;;-4.41;86.93;99442.09;1709413;84;20894;-65
2022/02/13 06:32:23;;;;;;;38.23;18.32;;;;;;;-4.30;86.95;99444.39;1709507;83;21088;-65
2022/02/13 06:34:50;;;;;;;67.87;31.40;;;;;;;-4.21;86.78;99435.58;1709490;82;20946;-62
2022/02/13 06:37:16;;;;;;;128.50;54.95;;;;;;;-4.13;86.53;99433.95;1709500;84;21485;-63
2022/02/13 06:39:43;;;;;;;63.02;32.05;;;;;;;-4.06;86.44;99434.94;1709495;83;22254;-63
2022/02/13 06:42:09;;;;;;;287.63;94.85;;;;;;;-4.00;86.22;99435.09;1709435;84;20890;-65
2022/02/13 06:44:36;;;;;;;61.10;31.87;;;;;;;-3.92;86.09;99426.44;1709746;84;20895;-63
2022/02/13 06:47:04;;;;;;;54.98;28.95;;;;;;;-3.86;86.01;99430.52;1709483;84;21062;-66
2022/02/13 06:49:31;;;;;;;63.20;39.03;;;;;;;-3.79;86.07;99424.16;1709583;83;21024;-67
2022/02/13 06:52:00;;;;;;;39.58;23.65;;;;;;;-3.67;85.98;99429.36;1709389;83;21446;-65
2022/02/13 06:54:26;;;;;;;26.68;14.35;;;;;;;-3.53;85.86;99424.77;1709667;84;20887;-61
2022/02/13 06:56:53;;;;;;;27.37;14.13;;;;;;;-3.39;85.64;99424.60;1709599;83;21465;-65
2022/02/13 06:59:22;;;;;;;24.27;13.53;;;;;;;-3.28;85.39;99419.83;1709452;84;21018;-66
2022/02/13 07:01:48;;;;;;;19.57;10.75;;;;;;;-3.17;85.04;99412.91;1709515;82;20974;-65
2022/02/13 07:04:15;;;;;;;17.15;9.98;;;;;;;-3.04;84.85;99418.94;1709482;84;21129;-67
2022/02/13 07:06:42;;;;;;;15.03;8.30;;;;;;;-2.95;84.23;99412.19;1709416;84;20930;-65
2022/02/13 07:09:09;;;;;;;52.88;22.55;;;;;;;-2.88;83.98;99407.89;1709575;84;20906;-62
2022/02/13 07:11:37;;;;;;;50.10;20.77;;;;;;;-2.79;83.72;99404.25;1709411;84;37744;-62
2022/02/13 07:14:03;;;;;;;34.50;14.28;;;;;;;-2.70;83.65;99412.88;1709514;83;20914;-62
2022/02/13 07:16:30;;;;;;;55.10;20.48;;;;;;;-2.62;83.13;99397.60;1709416;83;21167;-63
2022/02/13 07:18:57;;;;;;;34.40;12.90;;;;;;;-2.54;82.83;99396.26;1709399;84;20922;-66
2022/02/13 07:21:24;;;;;;;39.35;14.68;;;;;;;-2.47;82.24;99391.44;1709562;83;20946;-68
2022/02/13 07:23:51;;;;;;;58.92;17.95;;;;;;;-2.39;81.89;99402.38;1709459;82;21306;-64
2022/02/13 07:26:17;;;;;;;30.60;11.88;;;;;;;-2.33;81.65;99395.94;1709588;83;20863;-61
2022/02/13 07:28:59;;;;;;;42.93;14.75;;;;;;;-2.24;81.49;99390.16;1709686;82;21660;-62
2022/02/13 07:31:30;;;;;;;31.07;11.68;;;;;;;-2.13;81.14;99392.36;1709426;84;20879;-66
2022/02/13 07:33:57;;;;;;;37.05;13.98;;;;;;;-2.02;80.49;99388.00;1709495;83;21429;-64
2022/02/13 07:36:24;;;;;;;30.02;11.97;;;;;;;-1.90;80.13;99395.78;1709625;84;20906;-67
2022/02/13 07:38:50;;;;;;;24.18;9.93;;;;;;;-1.79;79.70;99393.25;1709474;83;20851;-67
2022/02/13 07:41:17;;;;;;;31.68;14.47;;;;;;;-1.70;79.44;99391.69;1709467;84;21749;-64
2022/02/13 07:43:44;;;;;;;22.40;12.33;;;;;;;-1.62;78.63;99397.34;1709630;84;20942;-64
2022/02/13 07:46:10;;;;;;;21.42;11.65;;;;;;;-1.57;78.22;99395.00;1709472;84;20887;-64
2022/02/13 07:48:39;;;;;;;15.63;9.28;;;;;;;-1.49;78.18;99398.38;1709422;83;21442;-67
2022/02/13 07:51:09;;;;;;;15.32;9.28;;;;;;;-1.37;77.68;99395.60;1709416;83;20946;-67
2022/02/13 07:53:39;;;;;;;14.45;7.95;;;;;;;-1.27;77.41;99397.17;1709513;84;21199;-64
2022/02/13 07:56:06;;;;;;;9.68;6.37;;;;;;;-1.19;77.17;99394.44;1709553;82;20934;-63
2022/02/13 07:58:33;;;;;;;12.37;7.47;;;;;;;-1.08;76.45;99396.61;1709690;82;21433;-65
2022/02/13 08:01:05;;;;;;;24.10;13.93;;;;;;;-0.98;76.24;99393.20;1709789;83;21926;-68
2022/02/13 08:03:35;;;;;;;12.33;8.05;;;;;;;-0.93;75.83;99385.09;1709545;84;20993;-67
2022/02/13 08:06:04;;;;;;;12.03;6.70;;;;;;;-0.84;75.31;99385.80;1709605;83;21100;-64
2022/02/13 08:08:36;;;;;;;11.75;7.80;;;;;;;-0.76;74.79;99383.08;1709453;83;21568;-64
2022/02/13 08:11:00;;;;;;;8.73;6.20;;;;;;;-0.70;74.45;99377.06;1709434;83;20946;-66
2022/02/13 08:13:27;;;;;;;11.18;7.42;;;;;;;-0.63;74.28;99371.38;1709742;84;21446;-61
2022/02/13 08:15:54;;;;;;;10.15;6.53;;;;;;;-0.53;73.77;99363.19;1709484;84;20914;-62
2022/02/13 08:18:21;;;;;;;9.65;6.00;;;;;;;-0.45;73.31;99365.72;1716207;83;21726;-65
2022/02/13 08:20:47;;;;;;;8.65;5.65;;;;;;;-0.38;73.29;99350.80;1717201;83;20937;-64
2022/02/13 08:23:14;;;;;;;8.08;5.05;;;;;;;-0.27;73.11;99358.20;1717263;83;20938;-67
2022/02/13 08:25:41;;;;;;;8.78;5.33;;;;;;;-0.14;72.46;99349.91;1717299;83;20934;-66
2022/02/13 08:28:07;;;;;;;8.40;4.97;;;;;;;-0.02;72.01;99352.84;1717367;83;21489;-62
2022/02/13 08:30:34;;;;;;;12.43;5.30;;;;;;;0.04;71.42;99348.16;1717240;83;21116;-62
2022/02/13 08:33:02;;;;;;;7.05;4.33;;;;;;;0.08;70.73;99352.53;1717096;83;20906;-64
2022/02/13 08:35:30;;;;;;;6.92;4.30;;;;;;;0.10;70.29;99343.42;1717224;83;20941;-62
2022/02/13 08:37:56;;;;;;;15.65;9.40;;;;;;;0.15;69.54;99337.59;1717390;83;20949;-61
2022/02/13 08:40:23;;;;;;;9.68;5.92;;;;;;;0.20;69.77;99343.10;1717275;83;21520;-61
2022/02/13 08:42:50;;;;;;;10.48;5.70;;;;;;;0.25;69.12;99339.39;1717241;83;21135;-66
2022/02/13 08:45:17;;;;;;;11.18;7.00;;;;;;;0.30;68.85;99338.32;1717187;83;20930;-66
2022/02/13 08:47:44;;;;;;;12.43;6.55;;;;;;;0.40;68.78;99342.76;1717371;83;21567;-68
2022/02/13 08:50:12;;;;;;;9.65;5.70;;;;;;;0.50;67.91;99331.34;1717183;82;20922;-64
2022/02/13 08:52:39;;;;;;;7.08;4.95;;;;;;;0.57;67.80;99337.47;1717242;82;20921;-66
2022/02/13 08:55:07;;;;;;;14.43;7.72;;;;;;;0.64;67.64;99327.28;1717328;83;21504;-66
2022/02/13 08:57:34;;;;;;;13.72;7.30;;;;;;;0.73;66.67;99326.61;1717034;83;20903;-69
2022/02/13 09:00:06;;;;;;;12.53;7.58;;;;;;;0.77;66.52;99318.64;1717236;83;20993;-65
2022/02/13 09:02:33;;;;;;;9.60;6.10;;;;;;;0.76;65.81;99320.95;1717147;83;20969;-65
2022/02/13 09:05:01;;;;;;;6.60;4.97;;;;;;;0.72;65.92;99332.91;1717229;83;20938;-63
2022/02/13 09:07:29;;;;;;;7.12;4.60;;;;;;;0.72;65.68;99326.81;1717124;83;21145;-66
2022/02/13 09:09:56;;;;;;;5.62;4.17;;;;;;;0.68;65.81;99321.13;1687684;83;20954;-66
2022/02/13 09:12:25;;;;;;;6.55;3.95;;;;;;;0.71;65.98;99337.86;1717284;83;20989;-62
2022/02/13 09:14:51;;;;;;;8.43;5.10;;;;;;;0.76;65.58;99325.41;1717080;83;21012;-63
2022/02/13 09:17:18;;;;;;;9.28;4.30;;;;;;;0.79;66.02;99325.84;1714931;83;20938;-65
2022/02/13 09:19:45;;;;;;;7.42;4.65;;;;;;;0.85;65.36;99330.33;1709505;84;21560;-62
2022/02/13 09:22:16;;;;;;;9.55;6.65;;;;;;;0.85;65.21;99324.26;1709636;84;20938;-66
2022/02/13 09:24:43;;;;;;;12.53;6.47;;;;;;;0.85;65.73;99324.26;1709681;83;20949;-65
2022/02/13 09:27:10;;;;;;;11.63;7.08;;;;;;;0.92;65.59;99323.25;1709577;84;21459;-66
2022/02/13 09:29:37;;;;;;;5.22;4.05;;;;;;;0.98;65.37;99325.13;1709549;84;20895;-63
2022/02/13 09:32:05;;;;;;;5.85;4.47;;;;;;;0.99;64.84;99316.18;1709772;84;21054;-64
2022/02/13 09:34:33;;;;;;;6.33;4.17;;;;;;;0.97;64.86;99320.84;1709339;82;21012;-63
2022/02/13 09:37:00;;;;;;;6.40;4.35;;;;;;;0.95;64.55;99318.91;1709613;83;21453;-62
2022/02/13 09:39:32;;;;;;;10.38;6.03;;;;;;;0.92;64.83;99316.66;1709355;84;21430;-61
2022/02/13 09:41:59;;;;;;;8.25;5.62;;;;;;;0.97;65.26;99323.48;1709536;84;21031;-67
2022/02/13 09:44:25;;;;;;;7.75;5.45;;;;;;;1.00;64.93;99303.31;1709484;82;21120;-65
2022/02/13 09:46:51;;;;;;;7.92;5.33;;;;;;;1.04;65.15;99308.49;1709416;84;21024;-66
2022/02/13 09:49:20;;;;;;;8.35;4.58;;;;;;;1.11;65.66;99304.05;1709473;84;20886;-61
2022/02/13 09:51:46;;;;;;;10.35;6.12;;;;;;;1.16;64.90;99293.72;1709113;83;20898;-66
2022/02/13 09:54:13;;;;;;;8.68;5.78;;;;;;;1.16;65.11;99293.72;1709759;84;21489;-64
2022/02/13 09:56:39;;;;;;;6.00;4.62;;;;;;;1.18;65.38;99294.33;1709539;84;21126;-62
2022/02/13 09:59:09;;;;;;;10.18;6.28;;;;;;;1.20;65.07;99284.38;1709323;84;20883;-64
2022/02/13 10:01:46;;;;;;;13.43;9.33;;;;;;;1.17;65.17;99277.39;1709353;84;21066;-64
2022/02/13 10:04:13;;;;;;;10.63;7.28;;;;;;;1.12;65.59;99287.22;1709630;83;20985;-66
2022/02/13 10:06:41;;;;;;;13.03;8.13;;;;;;;1.12;65.68;99266.11;1709531;83;20982;-63
2022/02/13 10:09:09;;;;;;;9.98;6.03;;;;;;;1.13;65.90;99270.89;1709498;84;21117;-66
2022/02/13 10:11:39;;;;;;;10.05;7.65;;;;;;;1.16;65.91;99261.23;1709401;83;20898;-65
2022/02/13 10:14:15;;;;;;;6.10;5.00;;;;;;;1.18;66.07;99257.88;1709713;84;20946;-63
2022/02/13 10:17:07;;;;;;;9.18;5.65;;;;;;;1.22;66.09;99256.49;1780776;79;21500;-65
2022/02/13 10:19:34;;;;;;;8.40;5.70;;;;;;;1.26;66.26;99248.47;1784528;80;20901;-67
2022/02/13 10:22:01;;;;;;;8.60;5.40;;;;;;;1.28;66.01;99244.63;1784548;80;21171;-66
2022/02/13 10:24:36;;;;;;;8.75;4.87;;;;;;;1.30;66.25;99232.03;1784568;80;21504;-63
2022/02/13 10:27:08;;;;;;;6.75;4.92;;;;;;;1.33;65.63;99237.42;1784728;80;20908;-66
2022/02/13 10:29:41;;;;;;;9.50;5.95;;;;;;;1.29;65.97;99229.10;1784574;80;20881;-64
2022/02/13 10:32:25;;;;;;;8.18;5.80;;;;;;;1.30;66.08;99238.63;1784421;80;21044;-62
2022/02/13 10:35:08;;;;;;;10.18;7.50;;;;;;;1.35;66.31;99221.69;1784506;80;21437;-64
2022/02/13 10:37:54;;;;;;;8.98;6.55;;;;;;;1.43;66.43;99229.11;1784436;80;20869;-65
2022/02/13 10:40:25;;;;;;;16.75;8.93;;;;;;;1.48;66.16;99224.03;1784497;80;21527;-62
2022/02/13 10:43:09;;;;;;;13.38;8.15;;;;;;;1.51;66.42;99230.25;1784422;80;20913;-65
2022/02/13 10:45:38;;;;;;;13.13;6.78;;;;;;;1.53;66.40;99215.00;1784476;80;21442;-68
2022/02/13 10:48:08;;;;;;;12.10;8.35;;;;;;;1.60;66.19;99210.00;1784406;80;21106;-69
2022/02/13 10:50:39;;;;;;;14.87;10.43;;;;;;;1.62;66.04;99205.86;1784401;80;20818;-64
2022/02/13 10:53:07;;;;;;;18.17;10.78;;;;;;;1.62;66.25;99201.90;1784431;80;20886;-63
2022/02/13 10:55:36;;;;;;;10.82;7.17;;;;;;;1.65;66.41;99195.69;1784363;80;20881;-68
2022/02/13 10:58:03;;;;;;;8.83;5.80;;;;;;;1.72;65.99;99187.25;1784640;80;20873;-65
2022/02/13 11:00:31;;;;;;;10.18;7.53;;;;;;;1.71;65.73;99183.50;1784498;80;21120;-67
2022/02/13 11:03:04;;;;;;;8.60;6.37;;;;;;;1.73;65.99;99189.39;1784422;79;21492;-63
2022/02/13 11:05:34;;;;;;;7.80;5.67;;;;;;;1.75;65.74;99182.06;1784588;80;21312;-61
2022/02/13 11:08:11;;;;;;;7.78;5.30;;;;;;;1.76;65.62;99182.39;1784401;80;20869;-61
2022/02/13 11:10:44;;;;;;;6.92;5.10;;;;;;;1.81;65.74;99191.83;1784469;80;21093;-62
2022/02/13 11:13:12;;;;;;;5.70;4.60;;;;;;;1.91;65.32;99178.49;1784723;80;22100;-64
2022/02/13 11:15:39;;;;;;;7.12;5.22;;;;;;;1.97;64.60;99164.97;1757745;80;20881;-64
2022/02/13 11:18:09;;;;;;;8.60;5.35;;;;;;;1.96;64.77;99164.16;1782353;80;20869;-62
2022/02/13 11:20:36;;;;;;;8.38;5.87;;;;;;;2.03;64.93;99164.13;1780827;80;20969;-62
2022/02/13 11:23:26;;;;;;;7.85;5.37;;;;;;;2.11;64.68;99161.78;1782298;80;20841;-66
2022/02/13 11:26:01;;;;;;;7.15;5.20;;;;;;;2.18;64.30;99154.14;1782264;80;21115;-68
2022/02/13 11:28:54;;;;;;;8.43;5.80;;;;;;;2.21;64.06;99151.09;1782192;80;20865;-68